createdAt,value
2017-08-02T00:00:10.569Z,20.20
2017-08-02T00:02:38.109Z,20.12
2017-08-02T00:05:09.695Z,21.50
2017-08-02T00:07:38.306Z,17.70
2017-08-02T00:10:05.846Z,13.20
2017-08-02T00:12:34.189Z,13.55
2017-08-02T00:15:01.769Z,16.30
2017-08-02T00:17:29.311Z,22.33
2017-08-02T00:20:02.188Z,22.62
2017-08-02T00:22:29.732Z,22.50
2017-08-02T00:24:57.275Z,22.67
2017-08-02T00:27:25.170Z,22.10
2017-08-02T00:29:52.753Z,17.60
2017-08-02T00:32:20.292Z,15.65
2017-08-02T00:34:48.272Z,15.20
2017-08-02T00:37:15.813Z,14.68
2017-08-02T00:39:43.354Z,17.48
2017-08-02T00:42:11.044Z,19.42
2017-08-02T00:44:38.582Z,14.95
2017-08-02T00:47:06.165Z,12.98
2017-08-02T00:49:33.703Z,13.80
2017-08-02T00:52:01.595Z,16.50
2017-08-02T00:54:29.138Z,13.77
2017-08-02T00:56:56.672Z,11.07
2017-08-02T00:59:24.249Z,15.52
2017-08-02T01:01:51.789Z,14.80
2017-08-02T01:04:19.897Z,18.77
2017-08-02T01:06:47.522Z,22.45
2017-08-02T01:09:15.830Z,24.40
2017-08-02T01:11:43.460Z,21.77
2017-08-02T01:14:12.097Z,20.70
2017-08-02T01:16:39.634Z,20.52
2017-08-02T01:19:07.173Z,20.33
2017-08-02T01:21:36.402Z,20.50
2017-08-02T01:24:03.945Z,23.60
2017-08-02T01:26:31.942Z,21.62
2017-08-02T01:28:59.476Z,21.45
2017-08-02T01:31:28.625Z,23.77
2017-08-02T01:33:56.172Z,23.15
2017-08-02T01:36:23.711Z,22.55
2017-08-02T01:38:55.074Z,16.17
2017-08-02T01:41:22.662Z,14.20
2017-08-02T01:43:50.202Z,14.48
2017-08-02T01:46:17.762Z,17.00
2017-08-02T01:48:45.350Z,16.30
2017-08-02T01:51:12.898Z,18.67
2017-08-02T01:53:40.483Z,16.98
2017-08-02T01:56:08.794Z,19.00
2017-08-02T01:58:36.520Z,19.77
2017-08-02T02:01:04.828Z,20.58
2017-08-02T02:03:32.417Z,20.60
2017-08-02T02:06:00.221Z,19.40
2017-08-02T02:08:28.086Z,19.42
2017-08-02T02:10:55.649Z,18.50
2017-08-02T02:13:23.193Z,19.45
2017-08-02T02:15:50.926Z,20.67
2017-08-02T02:18:18.576Z,20.83
2017-08-02T02:20:46.120Z,20.52
2017-08-02T02:23:13.769Z,20.12
2017-08-02T02:25:41.502Z,19.70
2017-08-02T02:28:09.078Z,17.92
2017-08-02T02:30:37.385Z,17.83
2017-08-02T02:33:04.967Z,17.62
2017-08-02T02:35:32.508Z,17.33
2017-08-02T02:38:00.117Z,19.00
2017-08-02T02:40:27.663Z,18.85
2017-08-02T02:42:55.210Z,18.30
2017-08-02T02:45:22.795Z,18.50
2017-08-02T02:47:50.385Z,18.17
2017-08-02T02:50:18.732Z,18.48
2017-08-02T02:52:46.278Z,20.20
2017-08-02T02:55:18.666Z,20.60
2017-08-02T02:57:46.211Z,21.17
2017-08-02T03:00:13.790Z,20.98
2017-08-02T03:02:41.380Z,19.58
2017-08-02T03:05:08.921Z,20.85
2017-08-02T03:07:36.467Z,22.13
2017-08-02T03:10:04.057Z,21.20
2017-08-02T03:12:32.365Z,22.48
2017-08-02T03:14:59.945Z,20.02
2017-08-02T03:17:27.484Z,20.35
2017-08-02T03:19:55.227Z,19.80
2017-08-02T03:22:22.825Z,19.85
2017-08-02T03:24:52.640Z,20.35
2017-08-02T03:27:20.242Z,19.65
2017-08-02T03:29:48.605Z,20.77
2017-08-02T03:32:16.170Z,21.95
2017-08-02T03:34:44.118Z,24.17
2017-08-02T03:37:11.898Z,24.33
2017-08-02T03:39:39.442Z,25.40
2017-08-02T03:42:07.027Z,26.25
2017-08-02T03:44:34.574Z,25.00
2017-08-02T03:47:02.422Z,24.80
2017-08-02T03:49:29.966Z,22.30
2017-08-02T03:51:57.553Z,20.73
2017-08-02T03:54:25.134Z,22.08
2017-08-02T03:56:52.717Z,21.40
2017-08-02T03:59:21.020Z,18.50
2017-08-02T04:01:48.604Z,17.45
2017-08-02T04:04:16.155Z,17.50
2017-08-02T04:06:43.737Z,16.40
2017-08-02T04:09:11.314Z,17.08
2017-08-02T04:11:38.854Z,17.70
2017-08-02T04:14:06.437Z,17.92
2017-08-02T04:16:33.982Z,19.62
2017-08-02T04:19:01.525Z,17.75
2017-08-02T04:21:29.268Z,17.02
2017-08-02T04:23:56.806Z,15.82
2017-08-02T04:26:24.977Z,16.55
2017-08-02T04:28:53.289Z,16.23
2017-08-02T04:31:20.832Z,24.23
2017-08-02T04:33:48.445Z,29.27
2017-08-02T04:36:16.022Z,19.70
2017-08-02T04:38:43.561Z,28.67
2017-08-02T04:41:11.141Z,29.00
2017-08-02T04:43:38.682Z,29.23
2017-08-02T04:46:06.266Z,31.87
2017-08-02T04:48:33.810Z,32.60
2017-08-02T04:51:01.497Z,31.60
2017-08-02T04:53:29.816Z,32.63
2017-08-02T04:55:57.365Z,33.78
2017-08-02T04:58:24.948Z,32.78
2017-08-02T05:00:52.537Z,33.25
2017-08-02T05:03:20.089Z,36.05
2017-08-02T05:05:49.790Z,36.63
2017-08-02T05:08:17.328Z,38.25
2017-08-02T05:10:44.875Z,37.65
2017-08-02T05:13:12.778Z,39.25
2017-08-02T05:15:40.313Z,39.38
2017-08-02T05:18:07.856Z,36.08
2017-08-02T05:20:36.111Z,32.75
2017-08-02T05:23:04.422Z,24.23
2017-08-02T05:25:31.965Z,38.60
2017-08-02T05:27:59.552Z,24.65
2017-08-02T05:30:27.596Z,21.85
2017-08-02T05:32:55.146Z,32.05
2017-08-02T05:35:23.457Z,36.42
2017-08-02T05:37:51.453Z,39.88
2017-08-02T05:40:18.996Z,43.08
2017-08-02T05:42:46.546Z,41.05
2017-08-02T05:45:14.129Z,33.05
2017-08-02T05:47:43.017Z,36.72
2017-08-02T05:50:10.557Z,36.50
2017-08-02T05:52:38.136Z,33.13
2017-08-02T05:55:05.701Z,40.50
2017-08-02T05:57:33.783Z,30.65
2017-08-02T06:00:01.331Z,26.77
2017-08-02T06:02:28.873Z,31.27
2017-08-02T06:04:56.462Z,29.45
2017-08-02T06:07:24.321Z,33.53
2017-08-02T06:09:51.858Z,47.70
2017-08-02T06:12:22.010Z,51.00
2017-08-02T06:14:52.025Z,49.22
2017-08-02T06:17:19.609Z,48.60
2017-08-02T06:19:48.013Z,43.53
2017-08-02T06:22:22.244Z,46.17
2017-08-02T06:24:49.793Z,42.67
2017-08-02T06:27:18.545Z,45.53
2017-08-02T06:29:47.237Z,44.55
2017-08-02T06:32:15.186Z,44.63
2017-08-02T06:34:42.734Z,40.45
2017-08-02T06:37:10.274Z,43.55
2017-08-02T06:39:41.669Z,43.72
2017-08-02T06:42:09.217Z,40.50
2017-08-02T06:44:37.173Z,41.42
2017-08-02T06:47:04.728Z,39.70
2017-08-02T06:49:32.309Z,37.25
2017-08-02T06:51:59.912Z,34.38
2017-08-02T06:54:27.502Z,33.88
2017-08-02T06:56:55.112Z,28.45
2017-08-02T06:59:22.749Z,29.20
2017-08-02T07:01:50.301Z,27.85
2017-08-02T07:04:17.893Z,25.88
2017-08-02T07:06:46.392Z,25.48
2017-08-02T07:09:14.745Z,23.52
2017-08-02T07:11:42.288Z,23.90
2017-08-02T07:14:10.164Z,24.20
2017-08-02T07:16:37.710Z,21.45
2017-08-02T07:19:05.736Z,19.45
2017-08-02T07:21:33.325Z,19.35
2017-08-02T07:24:01.694Z,17.55
2017-08-02T07:26:29.245Z,16.00
2017-08-02T07:28:56.798Z,14.38
2017-08-02T07:31:28.102Z,13.45
2017-08-02T07:33:55.649Z,12.55
2017-08-02T07:36:23.523Z,10.30
2017-08-02T07:38:51.073Z,9.63
2017-08-02T07:41:18.618Z,9.20
2017-08-02T07:43:46.201Z,8.38
2017-08-02T07:46:13.743Z,7.40
2017-08-02T07:48:41.393Z,6.57
2017-08-02T07:51:08.932Z,7.43
2017-08-02T07:53:36.517Z,7.07
2017-08-02T07:56:04.097Z,6.20
2017-08-02T07:58:31.672Z,6.70
2017-08-02T08:01:00.023Z,5.77
2017-08-02T08:03:27.732Z,5.87
2017-08-02T08:05:59.327Z,5.97
2017-08-02T08:08:27.273Z,6.10
2017-08-02T08:10:55.584Z,6.10
2017-08-02T08:13:23.122Z,6.00
2017-08-02T08:15:51.762Z,6.30
2017-08-02T08:18:19.305Z,6.93
2017-08-02T08:20:46.844Z,6.67
2017-08-02T08:23:14.512Z,5.90
2017-08-02T08:25:42.228Z,6.87
2017-08-02T08:28:09.764Z,7.17
2017-08-02T08:30:37.338Z,8.33
2017-08-02T08:33:04.873Z,8.37
2017-08-02T08:35:32.757Z,10.50
2017-08-02T08:38:00.306Z,9.10
2017-08-02T08:40:27.850Z,11.40
2017-08-02T08:42:55.581Z,10.50
2017-08-02T08:45:24.222Z,11.87
2017-08-02T08:47:51.769Z,9.77
2017-08-02T08:50:19.316Z,9.97
2017-08-02T08:52:46.900Z,10.83
2017-08-02T08:55:14.440Z,10.77
2017-08-02T08:57:42.073Z,10.77
2017-08-02T09:00:10.379Z,11.30
2017-08-02T09:02:37.970Z,9.53
2017-08-02T09:05:05.929Z,12.27
2017-08-02T09:07:35.562Z,10.57
2017-08-02T09:10:03.122Z,10.60
2017-08-02T09:12:31.789Z,10.47
2017-08-02T09:15:00.689Z,9.33
2017-08-02T09:17:28.226Z,9.53
2017-08-02T09:19:55.777Z,7.73
2017-08-02T09:22:23.373Z,9.00
2017-08-02T09:24:51.433Z,8.20
2017-08-02T09:27:18.975Z,8.43
2017-08-02T09:29:46.514Z,7.33
2017-08-02T09:32:14.453Z,6.97
2017-08-02T09:34:42.912Z,7.43
2017-08-02T09:37:10.451Z,7.20
2017-08-02T09:39:37.993Z,6.13
2017-08-02T09:42:05.564Z,6.23
2017-08-02T09:44:33.106Z,6.50
2017-08-02T09:47:00.694Z,6.40
2017-08-02T09:49:28.242Z,5.60
2017-08-02T09:51:55.962Z,5.67
2017-08-02T09:54:24.280Z,5.87
2017-08-02T09:56:52.018Z,6.40
2017-08-02T09:59:19.654Z,6.70
2017-08-02T10:01:47.199Z,7.10
2017-08-02T10:04:15.156Z,6.70
2017-08-02T10:06:42.689Z,6.30
2017-08-02T10:09:12.076Z,6.63
2017-08-02T10:11:39.846Z,6.30
2017-08-02T10:14:07.385Z,6.17
2017-08-02T10:16:35.695Z,6.17
2017-08-02T10:19:08.113Z,5.70
2017-08-02T10:21:35.697Z,6.30
2017-08-02T10:24:04.004Z,6.27
2017-08-02T10:26:31.545Z,5.87
2017-08-02T10:29:00.029Z,6.43
2017-08-02T10:31:28.335Z,6.53
2017-08-02T10:33:55.913Z,5.80
2017-08-02T10:36:23.898Z,5.60
2017-08-02T10:38:51.436Z,5.40
2017-08-02T10:41:18.976Z,4.90
2017-08-02T10:43:50.551Z,5.03
2017-08-02T10:46:18.099Z,5.30
2017-08-02T10:48:45.637Z,4.70
2017-08-02T10:51:13.989Z,5.30
2017-08-02T10:53:41.524Z,5.63
2017-08-02T10:56:09.052Z,5.10
2017-08-02T10:58:36.633Z,5.13
2017-08-02T11:01:04.177Z,4.40
2017-08-02T11:03:31.820Z,5.20
2017-08-02T11:05:59.357Z,4.87
2017-08-02T11:08:26.972Z,4.60
2017-08-02T11:10:55.951Z,4.63
2017-08-02T11:13:23.489Z,4.00
2017-08-02T11:15:51.847Z,4.70
2017-08-02T11:18:19.390Z,4.90
2017-08-02T11:20:47.021Z,4.80
2017-08-02T11:23:14.589Z,4.80
2017-08-02T11:25:42.578Z,4.70
2017-08-02T11:28:10.117Z,4.60
2017-08-02T11:30:38.494Z,5.07
2017-08-02T11:33:06.072Z,4.47
2017-08-02T11:35:33.609Z,4.40
2017-08-02T11:38:06.846Z,4.17
2017-08-02T11:40:34.389Z,4.50
2017-08-02T11:43:01.928Z,4.47
2017-08-02T11:45:29.507Z,4.40
2017-08-02T11:47:57.365Z,4.03
2017-08-02T11:50:24.901Z,4.10
2017-08-02T11:52:52.439Z,4.37
2017-08-02T11:55:20.912Z,4.67
2017-08-02T11:57:49.246Z,4.53
2017-08-02T12:00:16.813Z,4.87
2017-08-02T12:02:44.345Z,4.30
2017-08-02T12:05:11.921Z,4.50
2017-08-02T12:07:39.453Z,4.40
2017-08-02T12:10:07.021Z,4.60
2017-08-02T12:12:34.773Z,5.13
2017-08-02T12:15:07.432Z,4.57
2017-08-02T12:17:35.734Z,4.30
2017-08-02T12:20:03.310Z,3.77
2017-08-02T12:22:30.838Z,4.30
2017-08-02T12:24:59.177Z,4.20
2017-08-02T12:27:26.718Z,4.47
2017-08-02T12:29:54.602Z,4.23
2017-08-02T12:32:22.137Z,4.40
2017-08-02T12:34:49.715Z,4.23
2017-08-02T12:37:22.436Z,3.90
2017-08-02T12:39:50.173Z,3.90
2017-08-02T12:42:17.712Z,3.97
2017-08-02T12:44:45.240Z,4.20
2017-08-02T12:47:12.858Z,4.70
2017-08-02T12:49:40.394Z,4.10
2017-08-02T12:52:07.920Z,3.87
2017-08-02T12:54:36.365Z,3.63
2017-08-02T12:57:03.897Z,3.67
2017-08-02T12:59:31.730Z,4.10
2017-08-02T13:01:59.268Z,3.70
2017-08-02T13:04:26.798Z,3.60
2017-08-02T13:06:54.538Z,3.70
2017-08-02T13:09:22.234Z,3.87
2017-08-02T13:11:49.770Z,3.30
2017-08-02T13:14:17.305Z,3.43
2017-08-02T13:16:45.007Z,3.67
2017-08-02T13:19:12.562Z,3.13
2017-08-02T13:21:40.140Z,3.77
2017-08-02T13:24:07.681Z,3.20
2017-08-02T13:26:35.973Z,3.37
2017-08-02T13:29:03.510Z,3.40
2017-08-02T13:31:31.050Z,3.50
2017-08-02T13:33:58.685Z,3.63
2017-08-02T13:36:27.048Z,3.47
2017-08-02T13:38:54.658Z,3.67
2017-08-02T13:41:22.186Z,3.97
2017-08-02T13:43:50.676Z,3.40
2017-08-02T13:46:19.030Z,3.27
2017-08-02T13:48:46.587Z,3.83
2017-08-02T13:51:19.028Z,3.43
2017-08-02T13:53:46.582Z,3.70
2017-08-02T13:56:14.165Z,3.60
2017-08-02T13:58:41.738Z,3.60
2017-08-02T14:01:09.312Z,3.50
2017-08-02T14:03:36.842Z,3.40
2017-08-02T14:06:04.798Z,3.53
2017-08-02T14:08:32.329Z,3.87
2017-08-02T14:10:59.927Z,3.23
2017-08-02T14:13:29.115Z,3.60
2017-08-02T14:15:59.363Z,3.30
2017-08-02T14:18:26.894Z,3.50
2017-08-02T14:20:54.453Z,3.40
2017-08-02T14:23:22.165Z,3.50
2017-08-02T14:25:49.842Z,3.10
2017-08-02T14:28:18.137Z,3.50
2017-08-02T14:30:45.680Z,3.80
2017-08-02T14:33:14.446Z,3.57
2017-08-02T14:35:41.988Z,3.20
2017-08-02T14:38:09.548Z,3.20
2017-08-02T14:40:37.620Z,3.40
2017-08-02T14:43:05.146Z,3.43
2017-08-02T14:45:32.676Z,3.47
2017-08-02T14:48:01.017Z,3.47
2017-08-02T14:50:28.584Z,3.57
2017-08-02T14:52:56.548Z,3.80
2017-08-02T14:55:24.073Z,4.30
2017-08-02T14:57:51.602Z,4.10
2017-08-02T15:00:20.057Z,4.30
2017-08-02T15:02:47.602Z,4.03
2017-08-02T15:05:15.328Z,4.77
2017-08-02T15:07:42.860Z,4.40
2017-08-02T15:10:10.433Z,3.63
2017-08-02T15:12:38.742Z,3.53
2017-08-02T15:15:06.426Z,3.70
2017-08-02T15:17:33.977Z,4.13
2017-08-02T15:20:01.505Z,4.13
2017-08-02T15:22:29.184Z,4.10
2017-08-02T15:24:56.719Z,4.37
2017-08-02T15:27:24.949Z,4.10
2017-08-02T15:29:52.481Z,3.70
2017-08-02T15:32:20.022Z,3.90
2017-08-02T15:34:48.385Z,3.73
2017-08-02T15:37:16.691Z,4.03
2017-08-02T15:39:44.257Z,4.17
2017-08-02T15:42:12.252Z,3.80
2017-08-02T15:44:39.790Z,4.20
2017-08-02T15:47:07.386Z,4.33
2017-08-02T15:49:34.922Z,4.70
2017-08-02T15:52:02.770Z,4.10
2017-08-02T15:54:30.385Z,4.60
2017-08-02T15:56:57.994Z,4.23
2017-08-02T15:59:25.728Z,4.20
2017-08-02T16:01:54.086Z,3.67
2017-08-02T16:04:21.657Z,4.60
2017-08-02T16:06:49.965Z,4.13
2017-08-02T16:09:18.309Z,4.60
2017-08-02T16:11:45.848Z,4.30
2017-08-02T16:14:13.421Z,4.70
2017-08-02T16:16:40.976Z,5.00
2017-08-02T16:19:13.858Z,4.60
2017-08-02T16:21:41.398Z,4.60
2017-08-02T16:24:08.961Z,4.40
2017-08-02T16:26:36.546Z,4.40
2017-08-02T16:29:04.107Z,4.60
2017-08-02T16:31:31.780Z,4.60
2017-08-02T16:33:59.319Z,4.60
2017-08-02T16:36:27.500Z,4.43
2017-08-02T16:38:55.039Z,4.70
2017-08-02T16:41:22.573Z,4.83
2017-08-02T16:43:50.744Z,4.37
2017-08-02T16:46:18.321Z,4.50
2017-08-02T16:48:45.869Z,4.80
2017-08-02T16:51:13.454Z,5.07
2017-08-02T16:53:41.534Z,4.97
2017-08-02T16:56:09.065Z,6.30
2017-08-02T16:58:36.597Z,6.00
2017-08-02T17:01:05.206Z,5.33
2017-08-02T17:03:32.736Z,5.00
2017-08-02T17:06:00.273Z,5.50
2017-08-02T17:08:28.429Z,5.03
2017-08-02T17:10:55.970Z,4.90
2017-08-02T17:13:23.546Z,4.87
2017-08-02T17:15:51.417Z,4.70
2017-08-02T17:18:18.954Z,4.80
2017-08-02T17:20:46.509Z,4.73
2017-08-02T17:23:14.336Z,4.60
2017-08-02T17:25:41.934Z,5.20
2017-08-02T17:28:09.474Z,4.80
2017-08-02T17:30:38.117Z,5.33
2017-08-02T17:33:05.663Z,5.10
2017-08-02T17:35:33.193Z,5.10
2017-08-02T17:38:00.940Z,5.43
2017-08-02T17:40:28.486Z,5.67
2017-08-02T17:42:56.337Z,5.30
2017-08-02T17:45:23.909Z,5.30
2017-08-02T17:47:51.450Z,5.80
2017-08-02T17:50:19.297Z,5.30
2017-08-02T17:52:46.841Z,5.50
2017-08-02T17:55:14.381Z,5.50
2017-08-02T17:57:42.767Z,5.63
2017-08-02T18:00:10.377Z,5.23
2017-08-02T18:02:37.922Z,5.70
2017-08-02T18:05:10.509Z,5.77
2017-08-02T18:07:38.234Z,6.57
2017-08-02T18:10:05.919Z,6.53
2017-08-02T18:12:33.462Z,6.07
2017-08-02T18:15:01.417Z,6.47
2017-08-02T18:17:29.010Z,6.63
2017-08-02T18:19:56.705Z,6.30
2017-08-02T18:22:24.263Z,6.50
2017-08-02T18:24:51.808Z,6.70
2017-08-02T18:27:19.449Z,7.13
2017-08-02T18:29:47.288Z,7.17
2017-08-02T18:32:15.601Z,15.20
2017-08-02T18:34:43.193Z,7.40
2017-08-02T18:37:10.787Z,7.10
2017-08-02T18:39:39.090Z,7.33
2017-08-02T18:42:07.215Z,7.70
2017-08-02T18:44:34.782Z,7.43
2017-08-02T18:47:02.346Z,7.30
2017-08-02T18:49:29.929Z,8.13
2017-08-02T18:51:58.271Z,7.60
2017-08-02T18:54:25.818Z,7.60
2017-08-02T18:56:53.393Z,7.80
2017-08-02T18:59:20.925Z,7.30
2017-08-02T19:01:48.577Z,7.30
2017-08-02T19:04:16.569Z,7.50
2017-08-02T19:06:44.404Z,8.30
2017-08-02T19:09:11.949Z,8.10
2017-08-02T19:11:39.536Z,8.30
2017-08-02T19:14:07.115Z,8.23
2017-08-02T19:16:34.658Z,7.87
2017-08-02T19:19:03.673Z,7.90
2017-08-02T19:21:31.259Z,7.40
2017-08-02T19:23:58.833Z,7.67
2017-08-02T19:26:26.382Z,7.70
2017-08-02T19:28:54.742Z,8.40
2017-08-02T19:31:22.549Z,7.43
2017-08-02T19:33:50.128Z,8.00
2017-08-02T19:36:17.667Z,8.50
2017-08-02T19:38:45.793Z,8.60
2017-08-02T19:41:13.329Z,7.90
2017-08-02T19:43:40.865Z,8.70
2017-08-02T19:46:08.505Z,8.30
2017-08-02T19:48:36.812Z,8.20
2017-08-02T19:51:04.393Z,9.20
2017-08-02T19:53:31.930Z,9.70
2017-08-02T19:56:03.524Z,8.57
2017-08-02T19:58:31.057Z,9.53
2017-08-02T20:00:58.589Z,9.33
2017-08-02T20:03:26.177Z,9.07
2017-08-02T20:05:54.269Z,8.73
2017-08-02T20:08:21.810Z,9.40
2017-08-02T20:10:49.433Z,9.80
2017-08-02T20:13:16.972Z,9.73
2017-08-02T20:15:47.290Z,9.95
2017-08-02T20:18:14.842Z,10.05
2017-08-02T20:20:42.877Z,8.80
2017-08-02T20:23:10.509Z,9.77
2017-08-02T20:25:38.037Z,8.60
2017-08-02T20:28:09.284Z,10.20
2017-08-02T20:30:36.830Z,9.77
2017-08-02T20:33:04.773Z,9.77
2017-08-02T20:35:32.322Z,10.25
2017-08-02T20:37:59.874Z,10.10
2017-08-02T20:40:28.224Z,9.80
2017-08-02T20:42:55.805Z,10.90
2017-08-02T20:45:24.122Z,10.70
2017-08-02T20:47:53.545Z,9.73
2017-08-02T20:50:21.085Z,9.70
2017-08-02T20:52:48.682Z,10.52
2017-08-02T20:55:16.222Z,9.90
2017-08-02T20:57:44.110Z,10.20
2017-08-02T21:00:11.656Z,10.38
2017-08-02T21:02:39.205Z,10.38
2017-08-02T21:05:07.297Z,10.50
2017-08-02T21:07:36.349Z,10.23
2017-08-02T21:10:03.893Z,12.07
2017-08-02T21:12:32.238Z,10.40
2017-08-02T21:15:00.098Z,10.43
2017-08-02T21:17:27.649Z,10.55
2017-08-02T21:19:55.198Z,10.48
2017-08-02T21:22:22.980Z,10.63
2017-08-02T21:24:50.569Z,11.32
2017-08-02T21:27:19.334Z,11.23
2017-08-02T21:29:46.889Z,10.55
2017-08-02T21:32:14.432Z,11.15
2017-08-02T21:34:42.017Z,11.07
2017-08-02T21:37:09.564Z,11.15
2017-08-02T21:39:42.666Z,11.40
2017-08-02T21:42:10.217Z,10.65
2017-08-02T21:44:37.761Z,10.57
2017-08-02T21:47:05.346Z,10.10
2017-08-02T21:49:32.997Z,11.57
2017-08-02T21:52:00.541Z,10.30
2017-08-02T21:54:33.028Z,10.98
2017-08-02T21:57:00.579Z,10.75
2017-08-02T21:59:28.168Z,11.15
2017-08-02T22:01:55.713Z,10.50
2017-08-02T22:04:28.194Z,11.20
2017-08-02T22:06:55.746Z,11.32
2017-08-02T22:09:23.820Z,10.88
2017-08-02T22:11:51.373Z,11.60
2017-08-02T22:14:18.921Z,11.90
2017-08-02T22:16:46.585Z,10.80
2017-08-02T22:19:14.128Z,11.10
2017-08-02T22:21:41.729Z,10.88
2017-08-02T22:24:09.276Z,11.12
2017-08-02T22:26:36.862Z,10.82
2017-08-02T22:29:04.417Z,11.60
2017-08-02T22:31:31.966Z,11.70
2017-08-02T22:33:59.892Z,12.10
2017-08-02T22:36:27.443Z,12.57
2017-08-02T22:38:55.759Z,12.05
2017-08-02T22:41:23.349Z,12.43
2017-08-02T22:43:50.892Z,12.63
2017-08-02T22:46:18.972Z,12.15
2017-08-02T22:48:46.523Z,12.60
2017-08-02T22:51:14.078Z,12.27
2017-08-02T22:53:42.417Z,12.40
2017-08-02T22:56:10.007Z,12.45
2017-08-02T22:58:37.553Z,12.35
2017-08-02T23:01:05.145Z,12.90
2017-08-02T23:03:36.569Z,13.27
2017-08-02T23:06:04.154Z,11.93
2017-08-02T23:08:31.702Z,12.25
2017-08-02T23:10:59.807Z,12.30
2017-08-02T23:13:27.358Z,12.00
2017-08-02T23:15:54.909Z,12.40
2017-08-02T23:18:23.702Z,13.00
2017-08-02T23:20:51.247Z,12.35
2017-08-02T23:23:18.828Z,12.30
2017-08-02T23:25:46.373Z,11.70
2017-08-02T23:28:14.109Z,10.43
2017-08-02T23:30:41.661Z,11.57
2017-08-02T23:33:09.265Z,13.18
2017-08-02T23:35:36.820Z,12.50
2017-08-02T23:38:04.526Z,12.02
2017-08-02T23:40:32.841Z,11.43
2017-08-02T23:43:00.391Z,11.38
2017-08-02T23:45:28.918Z,12.05
2017-08-02T23:47:56.466Z,12.98
2017-08-02T23:50:24.009Z,11.27
2017-08-02T23:52:51.598Z,10.63
2017-08-02T23:55:19.342Z,11.23
2017-08-02T23:57:46.898Z,11.43
